Forside
METAR-TAF:

METAR-TAF

Lufthavne :

Ames, Iowa, USA

Breddekreds: 41-59-26N, længdekreds: 093-37-08W, højde: 288 m

Aktuelle vejr

Denne rapport blev lavet for 46 minutter siden, kl. 13:53 UTC
Vind 8 kt fra øst
Temperatur 10°C
Fugtighed 46%
Tryk 1028 hPa
Sigt: 16.1 km
skyfri

METAR: KAMW 111353Z AUTO 08008KT 10SM CLR 10/M01 A3036 RMK AO2 SLP282 T01001011

Tid: 09:39 (14:39 UTC)


TAF: fraværende

Vejrobservationer og prognoser fra mere end 4000 lufthavne (METAR og TAF).

De gule og røde prikker repræsenterer de meteorologiske stationer.

Flyt musen over at se navnet på stationen.

Så klik over at se vejr observationer og prognoser.

At skifte det kort: Klik på de grønne knapper med et sort kors for at zoome ind; på den grønne knap med en bindestreg for at zoome ud; eller på de grønne pile for tilstødende kort.


METAR-TAF: